createdAt,value
2022-11-22T00:01:58.463Z,8.07
2022-11-22T00:06:02.661Z,6.80
2022-11-22T00:10:05.993Z,4.15
2022-11-22T00:14:08.729Z,3.50
2022-11-22T00:18:11.735Z,5.45
2022-11-22T00:22:15.747Z,5.40
2022-11-22T00:26:18.440Z,4.53
2022-11-22T00:30:21.359Z,4.80
2022-11-22T00:34:24.115Z,4.50
2022-11-22T00:38:28.237Z,3.95
2022-11-22T00:42:30.949Z,3.58
2022-11-22T00:46:33.662Z,4.82
2022-11-22T00:50:36.769Z,4.63
2022-11-22T00:54:40.805Z,3.97
2022-11-22T00:58:43.517Z,4.47
2022-11-22T01:02:46.341Z,3.08
2022-11-22T01:06:49.101Z,4.07
2022-11-22T01:10:58.273Z,4.75
2022-11-22T01:15:00.984Z,3.22
2022-11-22T01:19:03.994Z,3.90
2022-11-22T01:23:06.749Z,3.15
2022-11-22T01:27:10.797Z,3.70
2022-11-22T01:31:13.504Z,3.42
2022-11-22T01:35:16.322Z,7.03
2022-11-22T01:39:19.261Z,3.60
2022-11-22T01:43:25.039Z,33.65
2022-11-22T01:47:28.428Z,11.05
2022-11-22T01:51:35.539Z,5.35
2022-11-22T01:55:38.540Z,4.07
2022-11-22T01:59:47.457Z,6.45
2022-11-22T02:03:51.625Z,4.40
2022-11-22T02:08:00.331Z,5.95
2022-11-22T02:12:05.657Z,5.25
2022-11-22T02:16:11.146Z,6.43
2022-11-22T02:20:16.932Z,6.17
2022-11-22T02:24:26.076Z,3.40
2022-11-22T02:28:33.333Z,4.55
2022-11-22T02:32:36.112Z,4.35
2022-11-22T02:36:42.349Z,4.47
2022-11-22T02:40:51.164Z,5.60
2022-11-22T02:44:55.341Z,2.92
2022-11-22T02:48:58.052Z,3.55
2022-11-22T02:53:00.796Z,3.72
2022-11-22T02:57:03.831Z,5.20
2022-11-22T03:01:07.930Z,5.55
2022-11-22T03:05:10.950Z,2.28
2022-11-22T03:09:13.645Z,2.25
2022-11-22T03:13:16.354Z,2.58
2022-11-22T03:17:20.463Z,2.35
2022-11-22T03:21:23.177Z,3.35
2022-11-22T03:25:27.584Z,2.25
2022-11-22T03:29:30.937Z,2.28
2022-11-22T03:33:35.762Z,2.78
2022-11-22T03:37:38.556Z,3.08
2022-11-22T03:41:41.319Z,2.72
2022-11-22T03:45:46.335Z,2.20
2022-11-22T03:49:50.379Z,4.57
2022-11-22T03:53:53.073Z,2.53
2022-11-22T03:57:55.782Z,3.53
2022-11-22T04:01:58.524Z,4.18
2022-11-22T04:06:02.663Z,3.15
2022-11-22T04:10:06.695Z,2.10
2022-11-22T04:14:30.131Z,2.10
2022-11-22T04:18:32.829Z,3.75
2022-11-22T04:22:36.921Z,2.70
2022-11-22T04:26:39.603Z,4.53
2022-11-22T04:31:00.046Z,5.70
2022-11-22T04:35:02.754Z,3.30
2022-11-22T04:39:06.771Z,2.03
2022-11-22T04:43:30.797Z,3.03
2022-11-22T04:47:51.127Z,1.60
2022-11-22T04:52:11.365Z,1.88
2022-11-22T04:56:15.568Z,2.67
2022-11-22T05:00:19.098Z,2.42
2022-11-22T05:04:21.797Z,1.30
2022-11-22T05:08:24.609Z,4.72
2022-11-22T05:12:28.697Z,1.63
2022-11-22T05:16:31.372Z,4.95
2022-11-22T05:20:34.088Z,2.42
2022-11-22T05:24:36.824Z,3.47
2022-11-22T05:28:40.932Z,2.35
2022-11-22T05:32:43.601Z,3.50
2022-11-22T05:36:46.351Z,3.63
2022-11-22T05:40:49.117Z,4.10
2022-11-22T05:44:53.224Z,2.47
2022-11-22T05:48:57.554Z,3.92
2022-11-22T05:53:02.777Z,4.05
2022-11-22T05:57:05.473Z,3.83
2022-11-22T06:01:11.641Z,2.72
2022-11-22T06:05:14.439Z,4.38
2022-11-22T06:09:17.334Z,3.67
2022-11-22T06:13:20.061Z,5.80
2022-11-22T06:17:24.121Z,5.22
2022-11-22T06:21:28.478Z,5.25
2022-11-22T06:25:32.298Z,4.30
2022-11-22T06:29:35.016Z,6.55
2022-11-22T06:33:40.085Z,3.45
2022-11-22T06:37:42.772Z,8.05
2022-11-22T06:41:45.562Z,19.40
2022-11-22T06:45:48.233Z,39.40
2022-11-22T06:49:52.373Z,19.95
2022-11-22T06:53:56.069Z,12.98
2022-11-22T06:57:58.741Z,34.17
2022-11-22T07:02:06.131Z,33.22
2022-11-22T07:06:12.850Z,25.58
2022-11-22T07:10:16.333Z,31.38
2022-11-22T07:14:19.105Z,13.73
2022-11-22T07:18:21.824Z,17.58
2022-11-22T07:22:25.964Z,9.57
2022-11-22T07:26:28.833Z,18.92
2022-11-22T07:30:31.572Z,13.93
2022-11-22T07:34:34.325Z,6.13
2022-11-22T07:38:38.857Z,7.00
2022-11-22T07:42:41.589Z,6.00
2022-11-22T07:46:44.482Z,6.22
2022-11-22T07:50:47.154Z,11.07
2022-11-22T07:54:51.182Z,8.82
2022-11-22T07:58:53.916Z,13.88
2022-11-22T08:02:56.842Z,6.35
2022-11-22T08:06:59.566Z,14.35
2022-11-22T08:11:04.744Z,9.23
2022-11-22T08:15:08.718Z,9.20
2022-11-22T08:19:15.877Z,12.55
2022-11-22T08:23:18.782Z,9.15
2022-11-22T08:27:22.889Z,12.45
2022-11-22T08:31:27.018Z,11.77
2022-11-22T08:35:29.732Z,9.82
2022-11-22T08:39:32.546Z,10.70
2022-11-22T08:43:36.652Z,9.27
2022-11-22T08:47:39.381Z,12.32
2022-11-22T08:51:45.038Z,10.38
2022-11-22T08:55:47.846Z,10.00
2022-11-22T08:59:51.881Z,12.93
2022-11-22T09:03:54.589Z,11.68
2022-11-22T09:12:20.166Z,7.75
2022-11-22T09:16:24.430Z,10.10
2022-11-22T09:20:27.210Z,9.00
2022-11-22T09:24:29.963Z,5.57
2022-11-22T09:28:32.940Z,11.27
2022-11-22T09:32:36.996Z,11.95
2022-11-22T09:36:39.726Z,7.78
2022-11-22T09:40:47.133Z,11.45
2022-11-22T09:45:23.968Z,9.63
2022-11-22T09:49:30.424Z,4.78
2022-11-22T09:53:38.579Z,4.63
2022-11-22T09:57:46.831Z,7.35
2022-11-22T10:01:54.342Z,9.50
2022-11-22T10:06:01.917Z,10.35
2022-11-22T10:10:08.870Z,10.18
2022-11-22T10:14:23.382Z,11.70
2022-11-22T10:18:35.296Z,12.82
2022-11-22T10:22:39.581Z,11.57
2022-11-22T10:26:42.691Z,6.80
2022-11-22T10:30:53.958Z,10.70
2022-11-22T10:35:16.805Z,8.35
2022-11-22T10:39:34.238Z,8.65
2022-11-22T10:43:42.954Z,6.53
2022-11-22T10:47:53.950Z,13.98
2022-11-22T10:52:02.850Z,9.18
2022-11-22T10:56:13.668Z,8.05
2022-11-22T11:00:20.801Z,6.88
2022-11-22T11:04:25.461Z,7.93
2022-11-22T11:09:23.365Z,8.65
2022-11-22T11:13:03.576Z,4.07
2022-11-22T11:17:06.958Z,10.73
2022-11-22T11:21:13.697Z,31.02
2022-11-22T11:25:33.515Z,14.68
2022-11-22T11:29:43.688Z,28.90
2022-11-22T11:33:47.732Z,14.75
2022-11-22T11:37:50.512Z,8.15
2022-11-22T11:41:53.230Z,8.35
2022-11-22T11:46:17.385Z,6.72
2022-11-22T11:50:24.237Z,3.90
2022-11-22T11:54:36.652Z,7.43
2022-11-22T11:58:39.467Z,8.63
2022-11-22T12:02:46.317Z,14.52
2022-11-22T12:07:03.748Z,4.32
2022-11-22T12:11:10.999Z,6.47
2022-11-22T12:15:20.417Z,4.95
2022-11-22T12:19:32.227Z,3.20
2022-11-22T12:23:40.671Z,5.90
2022-11-22T12:27:43.502Z,7.60
2022-11-22T12:31:52.964Z,6.68
2022-11-22T12:35:57.836Z,8.57
2022-11-22T12:40:13.748Z,11.63
2022-11-22T12:44:19.373Z,6.70
2022-11-22T12:48:25.561Z,5.63
2022-11-22T12:56:45.216Z,7.10
2022-11-22T13:01:00.425Z,5.05
2022-11-22T13:05:05.733Z,9.48
2022-11-22T13:09:18.162Z,5.95
2022-11-22T13:13:25.682Z,15.32
2022-11-22T13:17:33.546Z,13.30
2022-11-22T13:21:47.959Z,12.23
2022-11-22T13:26:10.339Z,7.18
2022-11-22T13:30:20.439Z,10.40
2022-11-22T13:34:26.514Z,7.80
2022-11-22T13:38:29.775Z,9.02
2022-11-22T13:42:33.874Z,13.23
2022-11-22T13:46:57.978Z,11.05
2022-11-22T13:51:02.139Z,10.18
2022-11-22T13:55:38.782Z,7.65
2022-11-22T13:59:46.319Z,12.68
2022-11-22T14:03:49.193Z,7.40
2022-11-22T14:07:53.427Z,10.40
2022-11-22T14:12:20.901Z,14.32
2022-11-22T14:16:44.030Z,6.78
2022-11-22T14:21:00.169Z,5.20
2022-11-22T14:25:20.397Z,10.93
2022-11-22T14:30:04.220Z,8.77
2022-11-22T14:34:23.405Z,8.07
2022-11-22T14:38:32.081Z,6.07
2022-11-22T14:42:50.474Z,3.13
2022-11-22T14:46:57.524Z,6.05
2022-11-22T14:51:09.117Z,8.32
2022-11-22T14:55:17.864Z,8.68
2022-11-22T14:59:52.247Z,9.45
2022-11-22T15:09:12.941Z,13.27
2022-11-22T15:09:45.168Z,15.55
2022-11-22T15:14:24.734Z,14.15
2022-11-22T15:58:46.570Z,20.63
2022-11-22T16:02:52.399Z,7.18
2022-11-22T16:06:56.513Z,14.98
2022-11-22T16:10:59.445Z,8.52
2022-11-22T16:15:20.370Z,17.42
2022-11-22T16:19:25.361Z,23.58
2022-11-22T16:23:29.364Z,13.55
2022-11-22T16:27:32.113Z,4.78
2022-11-22T16:31:34.945Z,8.05
2022-11-22T16:35:39.187Z,5.97
2022-11-22T16:39:41.900Z,15.10
2022-11-22T16:43:45.078Z,17.25
2022-11-22T16:47:58.283Z,8.77
2022-11-22T16:52:13.135Z,4.38
2022-11-22T16:56:20.393Z,7.20
2022-11-22T17:00:23.148Z,4.72
2022-11-22T17:04:27.579Z,5.15
2022-11-22T17:08:31.725Z,7.03
2022-11-22T17:12:34.445Z,6.80
2022-11-22T17:16:37.313Z,12.10
2022-11-22T17:20:40.650Z,11.70
2022-11-22T17:24:44.785Z,12.32
2022-11-22T17:28:47.529Z,6.90
2022-11-22T17:32:50.247Z,9.05
2022-11-22T17:36:52.944Z,8.05
2022-11-22T17:41:01.308Z,14.65
2022-11-22T17:45:04.201Z,12.88
2022-11-22T17:49:11.229Z,10.52
2022-11-22T17:53:18.352Z,13.18
2022-11-22T17:57:22.454Z,19.92
2022-11-22T18:01:25.602Z,20.23
2022-11-22T18:05:28.347Z,22.38
2022-11-22T18:09:31.519Z,13.90
2022-11-22T18:13:37.374Z,10.48
2022-11-22T18:17:40.141Z,12.82
2022-11-22T18:21:43.153Z,13.80
2022-11-22T18:25:46.078Z,8.52
2022-11-22T18:29:50.167Z,5.10
2022-11-22T18:33:52.921Z,10.75
2022-11-22T18:37:55.727Z,11.07
2022-11-22T18:41:58.473Z,8.48
2022-11-22T18:46:03.040Z,8.88
2022-11-22T18:50:12.158Z,22.65
2022-11-22T18:54:15.956Z,15.45
2022-11-22T18:58:18.636Z,7.35
2022-11-22T19:02:25.708Z,11.75
2022-11-22T19:06:28.392Z,15.52
2022-11-22T19:10:31.084Z,9.60
2022-11-22T19:14:34.013Z,5.72
2022-11-22T19:18:42.689Z,11.93
2022-11-22T19:22:45.854Z,8.90
2022-11-22T19:26:48.565Z,9.57
2022-11-22T19:30:51.269Z,6.10
2022-11-22T19:34:55.309Z,12.30
2022-11-22T19:38:58.302Z,14.05
2022-11-22T19:43:01.302Z,19.13
2022-11-22T19:47:04.010Z,9.13
2022-11-22T19:51:08.789Z,8.30
2022-11-22T19:55:11.484Z,6.85
2022-11-22T19:59:15.950Z,9.23
2022-11-22T20:03:18.702Z,8.20
2022-11-22T20:07:22.858Z,8.82
2022-11-22T20:11:25.625Z,12.20
2022-11-22T20:15:28.371Z,10.80
2022-11-22T20:19:34.290Z,10.23
2022-11-22T20:27:42.003Z,11.27
2022-11-22T20:31:44.801Z,13.93
2022-11-22T20:35:47.508Z,9.85
2022-11-22T20:39:51.582Z,9.60
2022-11-22T20:43:54.466Z,9.93
2022-11-22T20:47:57.176Z,7.30
2022-11-22T20:51:59.877Z,8.07
2022-11-22T20:56:04.682Z,13.15
2022-11-22T21:00:08.632Z,19.75
2022-11-22T21:04:11.392Z,9.30
2022-11-22T21:08:14.474Z,8.80
2022-11-22T21:12:19.138Z,7.82
2022-11-22T21:16:24.658Z,9.65
2022-11-22T21:20:27.686Z,8.30
2022-11-22T21:24:30.650Z,9.23
2022-11-22T21:28:35.835Z,7.57
2022-11-22T21:32:38.750Z,9.70
2022-11-22T21:36:41.464Z,4.95
2022-11-22T21:40:51.245Z,6.47
2022-11-22T21:44:55.342Z,5.30
2022-11-22T21:48:58.059Z,4.20
2022-11-22T21:53:01.848Z,6.82
2022-11-22T21:57:04.680Z,5.07
2022-11-22T22:01:14.068Z,6.07
2022-11-22T22:05:17.628Z,7.90
2022-11-22T22:09:20.411Z,10.15
2022-11-22T22:13:23.097Z,8.68
2022-11-22T22:17:27.156Z,6.55
2022-11-22T22:21:29.969Z,8.57
2022-11-22T22:25:33.614Z,5.93
2022-11-22T22:29:36.416Z,5.22
2022-11-22T22:33:42.221Z,8.40
2022-11-22T22:37:44.914Z,8.25
2022-11-22T22:41:47.624Z,3.92
2022-11-22T22:45:50.894Z,3.30
2022-11-22T22:49:54.979Z,4.70
2022-11-22T22:53:58.348Z,6.07
2022-11-22T22:58:01.169Z,8.93
2022-11-22T23:02:04.346Z,7.90
2022-11-22T23:06:10.415Z,6.55
2022-11-22T23:10:13.153Z,4.68
2022-11-22T23:14:18.074Z,5.13
2022-11-22T23:18:20.793Z,6.78
2022-11-22T23:22:26.142Z,7.13
2022-11-22T23:26:29.249Z,8.33
2022-11-22T23:30:32.012Z,6.90
2022-11-22T23:34:35.066Z,5.78
2022-11-22T23:38:39.778Z,10.32
2022-11-22T23:42:42.529Z,4.10
2022-11-22T23:46:45.208Z,6.75
2022-11-22T23:50:47.896Z,8.68
2022-11-22T23:54:51.973Z,4.80
2022-11-22T23:58:54.980Z,9.95
